Time;durP1;ratioP1;P1;durP2;ratioP2;P2;SDS_P1;SDS_P2;PMS_P1;PMS_P2;Temp;Humidity;BMP_temperature;BMP_pressure;BME280_temperature;BME280_humidity;BME280_pressure;Samples;Min_cycle;Max_cycle;Signal;HPM_P1;HPM_P2
2022/04/03 00:00:13;;;;;;;26.10;2.35;;;2.60;99.90;;;;;;4974202;28;20042;-73
2022/04/03 00:02:39;;;;;;;0.00;0.00;;;2.60;99.90;;;;;;4977492;28;20403;-74
2022/04/03 00:05:05;;;;;;;0.17;0.17;;;2.60;99.90;;;;;;4978229;28;20026;-74
2022/04/03 00:07:32;;;;;;;0.00;0.00;;;2.60;99.90;;;;;;4977439;28;20109;-73
2022/04/03 00:09:58;;;;;;;10.25;0.35;;;2.50;99.90;;;;;;4977980;28;20019;-74
2022/04/03 00:12:24;;;;;;;0.35;0.25;;;2.50;99.90;;;;;;4989867;28;20034;-73
2022/04/03 00:14:50;;;;;;;0.55;0.38;;;2.50;99.90;;;;;;4977927;28;20027;-74
2022/04/03 00:17:16;;;;;;;0.00;0.00;;;2.50;99.90;;;;;;4977787;28;20036;-74
2022/04/03 00:19:42;;;;;;;0.00;0.00;;;2.40;99.90;;;;;;4977457;28;20086;-74
2022/04/03 00:22:10;;;;;;;0.13;0.13;;;2.40;99.90;;;;;;4977858;28;20026;-74
2022/04/03 00:24:36;;;;;;;0.47;0.47;;;2.40;99.90;;;;;;4977775;28;20041;-74
2022/04/03 00:27:02;;;;;;;0.10;0.10;;;2.30;99.90;;;;;;4977716;28;20097;-73
2022/04/03 00:29:28;;;;;;;0.00;0.00;;;2.30;99.90;;;;;;4977645;28;20074;-73
2022/04/03 00:31:54;;;;;;;0.32;0.32;;;2.30;99.90;;;;;;4977625;28;20027;-73
2022/04/03 00:34:20;;;;;;;0.00;0.00;;;2.30;99.90;;;;;;4977044;28;20038;-73
2022/04/03 00:36:45;;;;;;;0.00;0.00;;;2.20;99.90;;;;;;4975971;28;20035;-74
2022/04/03 00:39:11;;;;;;;0.00;0.00;;;2.20;99.90;;;;;;4957615;28;20038;-73
2022/04/03 00:41:39;;;;;;;0.45;0.45;;;2.20;99.90;;;;;;4958245;28;20039;-73
2022/04/03 00:44:05;;;;;;;0.15;0.15;;;2.20;99.90;;;;;;4958475;28;20027;-73
2022/04/03 00:46:33;;;;;;;0.30;0.30;;;2.10;99.90;;;;;;4972826;28;20118;-74
2022/04/03 00:49:00;;;;;;;0.22;0.22;;;2.10;99.90;;;;;;4972579;28;20533;-73
2022/04/03 00:51:27;;;;;;;11.25;2.50;;;2.00;99.90;;;;;;4958845;28;20026;-74
2022/04/03 00:53:52;;;;;;;0.10;0.10;;;2.10;99.90;;;;;;4976980;28;20106;-73
2022/04/03 00:56:18;;;;;;;0.25;0.25;;;2.00;99.90;;;;;;4977101;28;20185;-74
2022/04/03 00:58:44;;;;;;;0.00;0.00;;;2.00;99.90;;;;;;4977410;28;20030;-73
2022/04/03 01:01:11;;;;;;;0.00;0.00;;;2.00;99.90;;;;;;4982924;28;20047;-74
2022/04/03 01:03:36;;;;;;;0.00;0.00;;;2.00;99.90;;;;;;4978196;28;20069;-74
2022/04/03 01:06:02;;;;;;;0.10;0.10;;;2.00;99.90;;;;;;4977011;28;20485;-74
2022/04/03 01:08:28;;;;;;;0.10;0.10;;;2.00;99.90;;;;;;4976365;28;20483;-74
2022/04/03 01:10:55;;;;;;;0.00;0.00;;;1.90;99.90;;;;;;4977006;28;20409;-73
2022/04/03 01:13:21;;;;;;;0.52;0.52;;;1.90;99.90;;;;;;4975025;28;20398;-73
2022/04/03 01:15:54;;;;;;;0.00;0.00;;;1.90;99.90;;;;;;4977031;28;20031;-73
2022/04/03 01:18:23;;;;;;;0.00;0.00;;;1.90;99.90;;;;;;4976214;28;20051;-74
2022/04/03 01:20:48;;;;;;;0.10;0.10;;;1.90;99.90;;;;;;4976565;28;20490;-73
2022/04/03 01:23:15;;;;;;;0.47;0.47;;;1.90;99.90;;;;;;4976880;28;20030;-73
2022/04/03 01:25:41;;;;;;;0.00;0.00;;;1.80;99.90;;;;;;4976818;28;20151;-73
2022/04/03 01:28:07;;;;;;;0.43;0.43;;;1.80;99.90;;;;;;4976400;28;20035;-73
2022/04/03 01:30:33;;;;;;;0.00;0.00;;;1.80;99.90;;;;;;4976260;28;20023;-73
2022/04/03 01:32:59;;;;;;;0.00;0.00;;;1.80;99.90;;;;;;4976045;28;20073;-74
2022/04/03 01:35:24;;;;;;;0.00;0.00;;;1.70;99.90;;;;;;4976418;28;20027;-74
2022/04/03 01:37:50;;;;;;;3.38;1.13;;;1.70;99.90;;;;;;4976335;28;20038;-73
2022/04/03 01:40:16;;;;;;;0.10;0.10;;;1.70;99.90;;;;;;4976387;28;20039;-74
2022/04/03 01:42:41;;;;;;;0.00;0.00;;;1.60;99.90;;;;;;4976436;28;20038;-74
2022/04/03 01:45:07;;;;;;;0.80;0.80;;;1.60;99.90;;;;;;4976274;28;20037;-73
2022/04/03 01:47:34;;;;;;;0.45;0.38;;;1.50;99.90;;;;;;4975476;28;20047;-73
2022/04/03 01:50:00;;;;;;;0.00;0.00;;;1.50;99.90;;;;;;4974906;28;20027;-74
2022/04/03 01:52:26;;;;;;;0.00;0.00;;;1.50;99.90;;;;;;4975741;28;20026;-73
2022/04/03 01:54:51;;;;;;;0.30;0.30;;;1.40;99.90;;;;;;4980621;28;20121;-74
2022/04/03 01:57:17;;;;;;;0.20;0.20;;;1.40;99.90;;;;;;4975424;28;20461;-73
2022/04/03 01:59:43;;;;;;;0.00;0.00;;;1.30;99.90;;;;;;4976037;28;20027;-73
2022/04/03 02:02:08;;;;;;;0.00;0.00;;;1.40;99.90;;;;;;4975698;28;20553;-73
2022/04/03 02:04:34;;;;;;;3.25;1.63;;;1.30;99.90;;;;;;4975793;28;20031;-74
2022/04/03 02:07:03;;;;;;;0.05;0.05;;;1.40;99.90;;;;;;4974558;28;20023;-74
2022/04/03 02:09:30;;;;;;;11.95;1.98;;;1.40;99.90;;;;;;4975175;28;20027;-74
2022/04/03 02:11:57;;;;;;;0.30;0.30;;;1.30;99.90;;;;;;4975808;28;20119;-73
2022/04/03 02:14:24;;;;;;;0.47;0.47;;;1.30;99.90;;;;;;4975470;28;20106;-73
2022/04/03 02:16:53;;;;;;;0.00;0.00;;;1.20;99.90;;;;;;4956479;28;20042;-73
2022/04/03 02:19:19;;;;;;;0.00;0.00;;;1.20;99.90;;;;;;4955974;28;20025;-73
2022/04/03 02:21:44;;;;;;;0.00;0.00;;;1.20;99.90;;;;;;4956647;28;20036;-74
2022/04/03 02:24:10;;;;;;;0.20;0.10;;;1.20;99.90;;;;;;4955223;28;20031;-74
2022/04/03 02:26:35;;;;;;;0.15;0.15;;;1.20;99.90;;;;;;4956056;28;20391;-73
2022/04/03 02:29:01;;;;;;;0.80;0.40;;;1.20;99.90;;;;;;4955921;28;20027;-74
2022/04/03 02:31:27;;;;;;;0.00;0.00;;;1.10;99.90;;;;;;4956245;28;20034;-74
2022/04/03 02:33:52;;;;;;;0.00;0.00;;;1.10;99.90;;;;;;4955992;28;20042;-73
2022/04/03 02:36:18;;;;;;;0.00;0.00;;;1.10;99.90;;;;;;4955884;28;20031;-73
2022/04/03 02:38:44;;;;;;;0.43;0.43;;;1.00;99.90;;;;;;4974313;28;20097;-73
2022/04/03 02:41:12;;;;;;;0.70;0.70;;;1.00;99.90;;;;;;4975285;28;20031;-73
2022/04/03 02:43:38;;;;;;;0.32;0.32;;;1.00;99.90;;;;;;4975578;28;20122;-74
2022/04/03 02:46:03;;;;;;;0.00;0.00;;;0.90;99.90;;;;;;4975091;28;20461;-73
2022/04/03 02:48:30;;;;;;;6.63;0.70;;;0.90;99.90;;;;;;4974568;28;20027;-74
2022/04/03 02:50:56;;;;;;;0.68;0.68;;;0.90;99.90;;;;;;4981679;28;20490;-72
2022/04/03 02:53:22;;;;;;;0.05;0.05;;;0.90;99.90;;;;;;4975013;28;20033;-73
2022/04/03 02:55:48;;;;;;;0.65;0.25;;;0.80;99.90;;;;;;4974796;28;20511;-73
2022/04/03 02:58:13;;;;;;;0.10;0.10;;;0.90;99.90;;;;;;4974298;28;20022;-73
2022/04/03 03:00:39;;;;;;;0.00;0.00;;;0.90;99.90;;;;;;4974952;28;20034;-73
2022/04/03 03:03:06;;;;;;;0.20;0.20;;;0.80;99.90;;;;;;4974579;28;20083;-74
2022/04/03 03:05:32;;;;;;;0.20;0.20;;;0.80;99.90;;;;;;4975189;28;20038;-73
2022/04/03 03:07:58;;;;;;;0.10;0.10;;;0.80;99.90;;;;;;4974373;28;20019;-74
2022/04/03 03:10:24;;;;;;;0.00;0.00;;;0.80;99.90;;;;;;4972913;28;20077;-73
2022/04/03 03:12:50;;;;;;;0.10;0.10;;;0.80;99.90;;;;;;4973276;28;20101;-75
2022/04/03 03:15:17;;;;;;;0.00;0.00;;;0.70;99.90;;;;;;4969803;28;20034;-74
2022/04/03 03:17:43;;;;;;;0.03;0.03;;;0.70;99.90;;;;;;4955351;28;20039;-73
2022/04/03 03:20:10;;;;;;;0.15;0.15;;;0.70;99.90;;;;;;4955286;28;20086;-73
2022/04/03 03:22:36;;;;;;;3.40;0.90;;;0.70;99.90;;;;;;4955412;28;20036;-74
2022/04/03 03:25:05;;;;;;;0.00;0.00;;;0.60;99.90;;;;;;4955385;28;20110;-73
2022/04/03 03:27:31;;;;;;;3.30;0.75;;;0.60;99.90;;;;;;4955313;28;20082;-74
2022/04/03 03:29:56;;;;;;;0.00;0.00;;;0.60;99.90;;;;;;4969907;28;20024;-74
2022/04/03 03:32:24;;;;;;;0.20;0.20;;;0.60;99.90;;;;;;4954460;29;20038;-73
2022/04/03 03:34:54;;;;;;;0.05;0.05;;;0.60;99.90;;;;;;4954942;28;20083;-73
2022/04/03 03:37:20;;;;;;;3.55;0.95;;;0.60;99.90;;;;;;4962369;28;20387;-73
2022/04/03 03:39:47;;;;;;;0.00;0.00;;;0.60;99.90;;;;;;4974195;28;20117;-74
2022/04/03 03:42:14;;;;;;;0.00;0.00;;;0.50;99.90;;;;;;4974388;28;20078;-74
2022/04/03 03:44:40;;;;;;;0.00;0.00;;;0.50;99.90;;;;;;4974182;28;20038;-73
2022/04/03 03:47:07;;;;;;;0.00;0.00;;;0.50;99.90;;;;;;4974286;28;20062;-73
2022/04/03 03:49:33;;;;;;;0.25;0.25;;;0.40;99.90;;;;;;4973907;28;20034;-73
2022/04/03 03:51:59;;;;;;;0.00;0.00;;;0.40;99.90;;;;;;4973702;28;20023;-73
2022/04/03 03:54:25;;;;;;;0.13;0.13;;;0.40;99.90;;;;;;4984583;28;20050;-73
2022/04/03 03:56:51;;;;;;;0.17;0.17;;;0.40;99.90;;;;;;4956900;28;20042;-73
2022/04/03 03:59:17;;;;;;;0.00;0.00;;;0.30;99.90;;;;;;4973916;28;20038;-73
2022/04/03 04:01:42;;;;;;;1.45;0.52;;;0.30;99.90;;;;;;4973810;28;20023;-73
2022/04/03 04:04:08;;;;;;;0.40;0.40;;;0.30;99.90;;;;;;4973540;28;20383;-73
2022/04/03 04:06:33;;;;;;;0.98;0.25;;;0.20;99.90;;;;;;4974421;28;20088;-74
2022/04/03 04:08:59;;;;;;;0.00;0.00;;;0.20;99.90;;;;;;4972860;28;20035;-74
2022/04/03 04:11:25;;;;;;;0.00;0.00;;;0.30;99.90;;;;;;4973994;28;20081;-74
2022/04/03 04:13:51;;;;;;;0.00;0.00;;;0.20;99.90;;;;;;4971862;28;20054;-74
2022/04/03 04:16:17;;;;;;;0.00;0.00;;;0.20;99.90;;;;;;4958868;28;20051;-74
2022/04/03 04:18:43;;;;;;;0.00;0.00;;;0.20;99.90;;;;;;4954164;28;20530;-74
2022/04/03 04:21:10;;;;;;;0.20;0.20;;;0.10;99.90;;;;;;4954685;28;20031;-74
2022/04/03 04:23:36;;;;;;;0.00;0.00;;;0.10;99.90;;;;;;4954698;28;20502;-73
2022/04/03 04:26:02;;;;;;;0.10;0.10;;;0.10;99.90;;;;;;4954650;28;20118;-73
2022/04/03 04:28:27;;;;;;;0.17;0.17;;;0.10;99.90;;;;;;4969007;28;20114;-73
2022/04/03 04:30:56;;;;;;;0.00;0.00;;;0.10;99.90;;;;;;4954548;28;20434;-73
2022/04/03 04:33:22;;;;;;;0.30;0.30;;;0.10;99.90;;;;;;4954236;28;20027;-74
2022/04/03 04:35:47;;;;;;;0.00;0.00;;;0.10;99.90;;;;;;4954705;28;20042;-73
2022/04/03 04:38:13;;;;;;;0.00;0.00;;;0.10;99.90;;;;;;4968657;28;20078;-73
2022/04/03 04:40:39;;;;;;;0.05;0.05;;;0.00;99.90;;;;;;4973845;28;20038;-74
2022/04/03 04:43:04;;;;;;;0.00;0.00;;;0.00;99.90;;;;;;4973094;28;20038;-75
2022/04/03 04:45:30;;;;;;;0.00;0.00;;;-0.10;99.90;;;;;;4989819;28;20026;-75
2022/04/03 04:48:01;;;;;;;0.00;0.00;;;-0.10;99.90;;;;;;4977889;28;20031;-74
2022/04/03 04:50:29;;;;;;;0.45;0.30;;;-0.10;99.90;;;;;;4976013;28;20027;-74
2022/04/03 04:52:56;;;;;;;4.43;2.38;;;-0.10;99.90;;;;;;4977025;28;20022;-74
2022/04/03 04:55:22;;;;;;;0.30;0.30;;;-0.10;99.90;;;;;;4959641;28;20514;-73
2022/04/03 04:57:56;;;;;;;0.00;0.00;;;-0.20;99.90;;;;;;4976022;28;20072;-74
2022/04/03 05:00:23;;;;;;;0.00;0.00;;;-0.20;99.90;;;;;;4976645;28;20478;-73
2022/04/03 05:02:50;;;;;;;0.30;0.30;;;-0.20;99.90;;;;;;4977000;28;20034;-73
2022/04/03 05:05:20;;;;;;;2.17;1.65;;;-0.30;99.90;;;;;;4977007;28;20033;-73
2022/04/03 05:07:49;;;;;;;0.68;0.68;;;-0.30;99.90;;;;;;4975682;28;20039;-73
2022/04/03 05:10:16;;;;;;;0.10;0.10;;;-0.30;99.90;;;;;;4976084;28;20402;-73
2022/04/03 05:12:43;;;;;;;0.10;0.10;;;-0.30;99.90;;;;;;4975328;28;20030;-74
2022/04/03 05:15:13;;;;;;;0.00;0.00;;;-0.30;99.90;;;;;;4976747;28;20062;-73
2022/04/03 05:17:41;;;;;;;0.10;0.10;;;-0.40;99.90;;;;;;4976279;28;20414;-73
2022/04/03 05:20:07;;;;;;;0.22;0.13;;;-0.40;99.90;;;;;;4975384;28;20031;-73
2022/04/03 05:22:33;;;;;;;0.08;0.08;;;-0.40;99.90;;;;;;4977019;28;20105;-74
2022/04/03 05:25:01;;;;;;;0.00;0.00;;;-0.40;99.90;;;;;;4976468;28;20114;-74
2022/04/03 05:27:27;;;;;;;0.20;0.20;;;-0.40;99.90;;;;;;4976527;28;20026;-74
2022/04/03 05:29:54;;;;;;;0.10;0.10;;;-0.40;99.90;;;;;;4976647;28;20027;-73
2022/04/03 05:32:28;;;;;;;0.05;0.05;;;-0.50;99.90;;;;;;4976432;28;20126;-73
2022/04/03 05:34:58;;;;;;;0.10;0.10;;;-0.50;99.90;;;;;;4975436;28;20487;-73
2022/04/03 05:37:23;;;;;;;0.17;0.17;;;-0.50;99.90;;;;;;4968436;28;20488;-74
2022/04/03 05:39:51;;;;;;;0.10;0.10;;;-0.50;99.90;;;;;;4956964;28;20031;-74
2022/04/03 05:42:20;;;;;;;0.57;0.57;;;-0.40;99.90;;;;;;4957007;28;20071;-73
2022/04/03 05:44:47;;;;;;;0.40;0.40;;;-0.40;99.90;;;;;;4956880;28;20518;-73
2022/04/03 05:47:13;;;;;;;0.10;0.10;;;-0.50;99.90;;;;;;4970750;28;20024;-73
2022/04/03 05:49:39;;;;;;;0.10;0.10;;;-0.40;99.90;;;;;;4964037;28;20380;-74
2022/04/03 05:52:05;;;;;;;0.25;0.25;;;-0.40;99.90;;;;;;4962428;28;20034;-74
2022/04/03 05:54:30;;;;;;;0.10;0.10;;;-0.40;99.90;;;;;;4961058;28;20054;-74
2022/04/03 05:56:56;;;;;;;0.10;0.10;;;-0.40;99.90;;;;;;4956789;28;20035;-73
2022/04/03 05:59:22;;;;;;;1.73;0.70;;;-0.40;99.90;;;;;;4956343;28;20031;-73
2022/04/03 06:01:48;;;;;;;0.57;0.57;;;-0.30;99.90;;;;;;4956555;28;20035;-73
2022/04/03 06:04:14;;;;;;;0.00;0.00;;;-0.30;99.90;;;;;;4956375;28;20512;-74
2022/04/03 06:06:40;;;;;;;0.03;0.03;;;-0.30;99.90;;;;;;4955528;28;20027;-74
2022/04/03 06:09:05;;;;;;;0.00;0.00;;;-0.30;99.90;;;;;;4956309;28;20027;-73
2022/04/03 06:11:31;;;;;;;0.00;0.00;;;-0.20;99.90;;;;;;4955807;28;20403;-74
2022/04/03 06:13:57;;;;;;;2.60;1.55;;;-0.20;99.90;;;;;;4956460;28;20077;-73
2022/04/03 06:16:22;;;;;;;0.17;0.17;;;-0.20;99.90;;;;;;4956429;28;20122;-73
2022/04/03 06:18:48;;;;;;;0.08;0.08;;;-0.20;99.90;;;;;;4955939;28;20062;-74
2022/04/03 06:21:14;;;;;;;0.65;0.65;;;-0.20;99.90;;;;;;4956422;28;20031;-73
2022/04/03 06:23:39;;;;;;;0.52;0.52;;;-0.20;99.90;;;;;;4956212;28;20402;-73
2022/04/03 06:26:05;;;;;;;0.10;0.10;;;-0.10;99.90;;;;;;4956298;28;20027;-74
2022/04/03 06:28:31;;;;;;;0.20;0.20;;;-0.10;99.90;;;;;;4955667;28;20127;-73
2022/04/03 06:30:57;;;;;;;0.38;0.38;;;-0.10;99.90;;;;;;4956187;28;20027;-74
2022/04/03 06:33:23;;;;;;;0.30;0.30;;;0.00;99.90;;;;;;4956072;28;20031;-73
2022/04/03 06:35:49;;;;;;;0.40;0.40;;;0.10;99.90;;;;;;4956166;28;20035;-73
2022/04/03 06:38:16;;;;;;;0.52;0.35;;;0.10;99.90;;;;;;4970379;28;20397;-73
2022/04/03 06:40:53;;;;;;;1.00;0.82;;;0.20;99.90;;;;;;4975640;28;20027;-74
2022/04/03 06:43:26;;;;;;;0.03;0.03;;;0.20;99.90;;;;;;4975235;28;20529;-74
2022/04/03 06:45:52;;;;;;;;;;;0.30;99.90;;;;;;4975498;28;20037;-73
2022/04/03 06:48:18;;;;;;;0.00;0.00;;;0.40;99.90;;;;;;4974787;28;19906;-73
2022/04/03 06:50:44;;;;;;;0.00;0.00;;;0.40;99.90;;;;;;4973891;28;20121;-74
2022/04/03 06:53:11;;;;;;;0.43;0.17;;;0.50;99.90;;;;;;4974503;28;20554;-73
2022/04/03 06:55:36;;;;;;;0.35;0.35;;;0.60;99.90;;;;;;4974816;28;20059;-74
2022/04/03 06:58:02;;;;;;;0.50;0.50;;;0.70;99.90;;;;;;4975331;28;20042;-74
2022/04/03 07:00:29;;;;;;;0.10;0.10;;;0.80;99.90;;;;;;4974835;28;20034;-74
2022/04/03 07:02:55;;;;;;;0.00;0.00;;;0.90;99.90;;;;;;4986291;28;20054;-72
2022/04/03 07:05:21;;;;;;;0.80;0.80;;;1.00;99.90;;;;;;4975041;28;20042;-73
2022/04/03 07:07:50;;;;;;;0.13;0.13;;;1.10;99.90;;;;;;4974961;28;20394;-74
2022/04/03 07:10:16;;;;;;;0.00;0.00;;;1.10;99.90;;;;;;4973334;28;20482;-74
2022/04/03 07:12:41;;;;;;;0.28;0.28;;;1.20;99.90;;;;;;4973852;28;20037;-73
2022/04/03 07:15:12;;;;;;;0.00;0.00;;;1.40;99.90;;;;;;4974339;28;20035;-74
2022/04/03 07:17:41;;;;;;;0.00;0.00;;;1.40;99.90;;;;;;4974509;28;20031;-74
2022/04/03 07:20:08;;;;;;;0.00;0.00;;;1.50;99.90;;;;;;4974529;28;20026;-74
2022/04/03 07:22:34;;;;;;;0.13;0.13;;;1.60;99.90;;;;;;4974644;28;20102;-74
2022/04/03 07:24:59;;;;;;;0.00;0.00;;;1.70;99.90;;;;;;4974604;28;20166;-74
2022/04/03 07:27:27;;;;;;;0.00;0.00;;;1.80;99.90;;;;;;4974793;28;20110;-74
2022/04/03 07:29:53;;;;;;;6.90;0.77;;;1.90;99.90;;;;;;4974276;28;20018;-74
2022/04/03 07:32:18;;;;;;;0.52;0.52;;;2.00;99.90;;;;;;4974249;28;20030;-73
2022/04/03 07:34:44;;;;;;;0.00;0.00;;;2.10;99.90;;;;;;4974241;28;20107;-74
2022/04/03 07:37:10;;;;;;;0.17;0.17;;;2.20;99.90;;;;;;4973766;28;20085;-74
2022/04/03 07:39:35;;;;;;;0.15;0.15;;;2.30;99.90;;;;;;4974132;28;20035;-74
2022/04/03 07:42:03;;;;;;;0.28;0.28;;;2.50;99.90;;;;;;4974479;28;20430;-74
2022/04/03 07:44:29;;;;;;;0.00;0.00;;;2.60;99.90;;;;;;4972875;28;20086;-73
2022/04/03 07:46:55;;;;;;;0.25;0.10;;;2.80;99.90;;;;;;4973549;28;20081;-74
2022/04/03 07:49:21;;;;;;;0.30;0.15;;;3.10;99.90;;;;;;4973948;28;20437;-74
2022/04/03 07:51:47;;;;;;;0.13;0.13;;;3.90;99.90;;;;;;4974012;28;20452;-74
2022/04/03 07:54:14;;;;;;;4.28;1.55;;;6.50;99.90;;;;;;4973695;28;20071;-74
2022/04/03 07:56:40;;;;;;;1.13;0.52;;;8.70;99.90;;;;;;4974140;28;20046;-74
2022/04/03 07:59:06;;;;;;;2.30;0.98;;;9.60;99.40;;;;;;4972795;28;20043;-75
2022/04/03 08:01:33;;;;;;;6.35;1.40;;;10.20;97.20;;;;;;4974390;28;20493;-74
2022/04/03 08:03:59;;;;;;;2.38;1.40;;;11.00;95.80;;;;;;4973902;28;20023;-75
2022/04/03 08:06:25;;;;;;;0.90;0.52;;;11.30;95.30;;;;;;4973981;28;20030;-74
2022/04/03 08:08:50;;;;;;;0.90;0.65;;;12.10;93.70;;;;;;4973894;28;20399;-75
2022/04/03 08:11:16;;;;;;;0.52;0.30;;;12.80;92.60;;;;;;4973226;28;20094;-74
2022/04/03 08:13:42;;;;;;;4.40;1.00;;;13.10;92.50;;;;;;4973272;28;20055;-74
2022/04/03 08:16:08;;;;;;;2.35;1.45;;;13.80;91.30;;;;;;4974214;28;20061;-75
2022/04/03 08:18:34;;;;;;;1.70;0.70;;;13.70;91.00;;;;;;4973441;28;20098;-75
2022/04/03 08:20:59;;;;;;;0.85;0.85;;;14.40;90.50;;;;;;4974075;28;20537;-75
2022/04/03 08:23:25;;;;;;;0.73;0.70;;;14.60;90.10;;;;;;4977877;28;20456;-75
2022/04/03 08:25:51;;;;;;;0.85;0.65;;;15.40;87.80;;;;;;4977823;28;20093;-75
2022/04/03 08:28:17;;;;;;;3.53;1.17;;;15.20;86.20;;;;;;4977790;28;20471;-76
2022/04/03 08:30:42;;;;;;;3.13;1.63;;;16.10;85.30;;;;;;4977449;28;20077;-75
2022/04/03 08:33:11;;;;;;;1.17;1.08;;;16.40;85.90;;;;;;4977349;28;20035;-75
2022/04/03 08:35:40;;;;;;;2.25;1.25;;;15.80;84.50;;;;;;4977609;28;20027;-75
2022/04/03 08:38:07;;;;;;;1.75;0.82;;;15.60;84.20;;;;;;4977292;28;20117;-75
2022/04/03 08:40:34;;;;;;;1.58;1.20;;;15.70;84.10;;;;;;4977843;28;20399;-75
2022/04/03 08:43:02;;;;;;;1.67;0.93;;;16.20;83.20;;;;;;4977419;28;20143;-75
2022/04/03 08:45:28;;;;;;;2.15;0.73;;;15.60;83.20;;;;;;4977319;28;20065;-75
2022/04/03 08:47:56;;;;;;;0.85;0.70;;;13.90;86.80;;;;;;4976538;28;20023;-75
2022/04/03 08:50:26;;;;;;;4.28;1.27;;;14.30;86.50;;;;;;4977297;28;20022;-75
2022/04/03 08:52:53;;;;;;;2.45;1.05;;;15.30;84.20;;;;;;4977268;28;20029;-76
2022/04/03 08:55:20;;;;;;;1.10;1.00;;;16.00;82.90;;;;;;4964352;28;20065;-76
2022/04/03 08:57:47;;;;;;;1.70;1.15;;;16.60;81.10;;;;;;4972769;28;20085;-75
2022/04/03 09:00:13;;;;;;;0.90;0.80;;;17.30;79.90;;;;;;4957727;28;20027;-75
2022/04/03 09:02:40;;;;;;;1.35;1.25;;;17.10;79.00;;;;;;4957671;28;20030;-75
2022/04/03 09:05:06;;;;;;;3.85;0.90;;;17.40;78.40;;;;;;4957692;28;20031;-75
2022/04/03 09:07:32;;;;;;;2.35;0.77;;;17.50;78.30;;;;;;4957858;28;20020;-75
2022/04/03 09:09:59;;;;;;;1.67;1.10;;;17.30;77.30;;;;;;4957502;28;20050;-76
2022/04/03 09:12:26;;;;;;;1.02;0.88;;;18.50;76.00;;;;;;4956921;28;20028;-75
2022/04/03 09:14:56;;;;;;;1.15;1.13;;;18.00;75.40;;;;;;4956358;28;20027;-75
2022/04/03 09:17:31;;;;;;;1.20;0.80;;;17.80;75.80;;;;;;4957608;28;20031;-76
2022/04/03 09:20:00;;;;;;;4.53;1.27;;;17.70;74.00;;;;;;4957325;28;20026;-75
2022/04/03 09:22:29;;;;;;;1.17;1.08;;;18.20;75.10;;;;;;4957128;28;20039;-76
2022/04/03 09:24:55;;;;;;;0.63;0.63;;;18.30;73.50;;;;;;4957537;28;20034;-76
2022/04/03 09:27:23;;;;;;;1.88;1.05;;;17.60;74.40;;;;;;4972071;28;20097;-76
2022/04/03 09:30:04;;;;;;;1.33;1.13;;;18.40;74.50;;;;;;4958368;28;20035;-74
2022/04/03 09:32:30;;;;;;;1.98;1.05;;;17.80;72.90;;;;;;4956562;28;20100;-75
2022/04/03 09:34:59;;;;;;;0.50;0.50;;;17.40;75.40;;;;;;4955454;28;20043;-75
2022/04/03 09:37:26;;;;;;;5.82;1.55;;;15.90;77.40;;;;;;4965287;28;20066;-76
2022/04/03 09:39:53;;;;;;;5.95;1.40;;;16.90;76.50;;;;;;4976393;28;20078;-75
2022/04/03 09:42:19;;;;;;;4.82;1.23;;;17.80;72.80;;;;;;4976367;28;20027;-75
2022/04/03 09:44:46;;;;;;;1.70;1.05;;;18.20;72.50;;;;;;4976458;28;20062;-75
2022/04/03 09:47:33;;;;;;;0.85;0.70;;;18.40;71.30;;;;;;4976341;28;20023;-75
2022/04/03 09:50:01;;;;;;;2.17;1.10;;;17.90;71.40;;;;;;4976240;28;20023;-75
2022/04/03 09:52:34;;;;;;;1.23;0.75;;;18.10;71.00;;;;;;4976066;28;20038;-76
2022/04/03 09:55:01;;;;;;;1.40;0.82;;;16.80;72.10;;;;;;4975657;28;20054;-75
2022/04/03 09:57:26;;;;;;;0.95;0.93;;;16.20;72.60;;;;;;4975609;28;20031;-75
2022/04/03 09:59:55;;;;;;;2.60;1.15;;;15.40;74.30;;;;;;4976419;28;20077;-75
2022/04/03 10:02:23;;;;;;;1.77;0.60;;;14.80;73.80;;;;;;4974550;28;20038;-75
2022/04/03 10:04:53;;;;;;;1.40;0.45;;;14.00;75.10;;;;;;4975960;28;20105;-74
2022/04/03 10:07:20;;;;;;;0.38;0.35;;;13.90;77.00;;;;;;4976341;28;20056;-75
2022/04/03 10:09:50;;;;;;;1.10;0.55;;;12.80;78.70;;;;;;4975667;28;20026;-74
2022/04/03 10:12:18;;;;;;;0.65;0.47;;;12.40;79.30;;;;;;4975371;28;20493;-75
2022/04/03 10:14:45;;;;;;;1.13;1.02;;;11.30;81.50;;;;;;4975808;28;20023;-75
2022/04/03 10:17:12;;;;;;;0.45;0.45;;;11.40;81.80;;;;;;4974410;28;20031;-74
2022/04/03 10:19:37;;;;;;;2.38;0.50;;;10.90;79.80;;;;;;4982134;28;20011;-75
2022/04/03 10:22:09;;;;;;;2.22;0.60;;;11.40;82.50;;;;;;4977723;28;20031;-74
2022/04/03 10:24:36;;;;;;;0.90;0.70;;;12.80;79.00;;;;;;4975589;28;20027;-75
2022/04/03 10:27:07;;;;;;;2.92;1.45;;;13.90;77.70;;;;;;4975551;28;20433;-75
2022/04/03 10:29:36;;;;;;;0.85;0.63;;;14.40;75.80;;;;;;4975143;28;20550;-75
2022/04/03 10:32:06;;;;;;;0.43;0.43;;;14.90;76.20;;;;;;4975312;28;20026;-74
2022/04/03 10:34:44;;;;;;;1.95;1.20;;;14.20;74.80;;;;;;4974550;28;20117;-74
2022/04/03 10:37:27;;;;;;;4.13;1.13;;;13.20;77.50;;;;;;4975483;28;20015;-74
2022/04/03 10:39:57;;;;;;;1.10;0.63;;;12.70;77.50;;;;;;4973481;28;20027;-74
2022/04/03 10:42:27;;;;;;;2.08;0.77;;;11.40;79.20;;;;;;4975080;28;20038;-74
2022/04/03 10:45:11;;;;;;;1.15;0.55;;;11.10;80.10;;;;;;4975095;28;20113;-74
2022/04/03 10:47:38;;;;;;;1.65;0.43;;;10.90;81.10;;;;;;4975009;28;20454;-74
2022/04/03 10:50:06;;;;;;;2.10;0.63;;;11.40;79.40;;;;;;4973821;28;20029;-74
2022/04/03 10:52:40;;;;;;;0.77;0.25;;;11.00;81.50;;;;;;4974837;28;20061;-74
2022/04/03 10:55:12;;;;;;;3.72;1.08;;;10.90;81.60;;;;;;4974605;28;20162;-74
2022/04/03 10:57:45;;;;;;;0.17;0.17;;;11.50;81.40;;;;;;4973784;28;20037;-75
2022/04/03 11:00:13;;;;;;;0.65;0.50;;;10.80;80.70;;;;;;4974789;28;20109;-74
2022/04/03 11:02:43;;;;;;;2.00;0.65;;;10.50;83.80;;;;;;4974606;28;20041;-73
2022/04/03 11:05:26;;;;;;;0.95;0.60;;;10.00;81.70;;;;;;4974861;28;20030;-74
2022/04/03 11:07:57;;;;;;;0.25;0.25;;;9.50;84.70;;;;;;4974509;28;20037;-74
2022/04/03 11:10:54;;;;;;;0.15;0.15;;;9.80;85.40;;;;;;4974471;28;20027;-73
2022/04/03 11:13:34;;;;;;;0.50;0.50;;;11.40;83.80;;;;;;4973782;28;20494;-74
2022/04/03 11:16:09;;;;;;;0.75;0.50;;;11.80;79.60;;;;;;4974749;28;20529;-75
2022/04/03 11:18:37;;;;;;;4.82;1.05;;;11.20;81.10;;;;;;4974176;28;20446;-74
2022/04/03 11:21:13;;;;;;;2.05;0.45;;;10.80;83.30;;;;;;4975112;28;20509;-74
2022/04/03 11:24:11;;;;;;;0.80;0.65;;;11.10;82.80;;;;;;4974511;28;20037;-75
2022/04/03 11:26:39;;;;;;;23.48;1.42;;;11.90;80.50;;;;;;4992182;28;20046;-75
2022/04/03 11:29:06;;;;;;;0.70;0.55;;;11.30;77.80;;;;;;4975786;28;20027;-75
2022/04/03 11:31:34;;;;;;;1.77;1.15;;;10.90;78.70;;;;;;4974439;28;20023;-73
2022/04/03 11:34:00;;;;;;;0.17;0.17;;;10.60;80.00;;;;;;4973968;28;20037;-74
2022/04/03 11:36:29;;;;;;;0.40;0.40;;;10.40;80.00;;;;;;4974216;28;20030;-74
2022/04/03 11:38:56;;;;;;;0.82;0.60;;;11.30;80.10;;;;;;4974358;28;20030;-74
2022/04/03 11:41:34;;;;;;;2.53;0.38;;;11.60;79.30;;;;;;4974729;28;20018;-75
2022/04/03 11:44:15;;;;;;;0.17;0.17;;;11.30;79.80;;;;;;4973933;28;20557;-73
2022/04/03 11:46:42;;;;;;;0.35;0.35;;;10.60;79.80;;;;;;4973142;28;20027;-74
2022/04/03 11:49:12;;;;;;;0.50;0.50;;;10.50;80.40;;;;;;4974022;28;20101;-73
2022/04/03 11:51:39;;;;;;;0.40;0.40;;;10.30;81.20;;;;;;4973939;28;20482;-73
2022/04/03 11:54:05;;;;;;;0.10;0.10;;;10.10;82.60;;;;;;4974186;28;20035;-74
2022/04/03 11:56:34;;;;;;;0.95;0.75;;;9.70;82.70;;;;;;4968829;28;20037;-74
2022/04/03 11:59:00;;;;;;;1.33;0.25;;;9.70;83.90;;;;;;4954913;28;20038;-74
2022/04/03 12:01:28;;;;;;;0.50;0.50;;;9.70;84.30;;;;;;4954981;29;20031;-74
2022/04/03 12:04:08;;;;;;;0.20;0.20;;;9.80;84.60;;;;;;4954468;28;20023;-74
2022/04/03 12:06:34;;;;;;;2.88;0.88;;;10.30;83.80;;;;;;4954940;28;20078;-74
2022/04/03 12:08:59;;;;;;;0.93;0.40;;;10.70;84.00;;;;;;4954725;28;20085;-73
2022/04/03 12:11:30;;;;;;;3.50;0.20;;;9.90;81.90;;;;;;4954556;28;20232;-74
2022/04/03 12:14:00;;;;;;;0.93;0.93;;;9.20;83.10;;;;;;4954052;28;20023;-73
2022/04/03 12:16:34;;;;;;;3.03;0.22;;;9.20;84.90;;;;;;4955013;28;20514;-74
2022/04/03 12:19:05;;;;;;;0.00;0.00;;;9.10;85.40;;;;;;4953638;28;20498;-74
2022/04/03 12:21:45;;;;;;;2.63;1.23;;;9.10;85.20;;;;;;4954582;29;20027;-74
2022/04/03 12:24:13;;;;;;;0.73;0.60;;;9.00;85.30;;;;;;4954562;28;20082;-74
2022/04/03 12:27:22;;;;;;;4.07;1.95;;;9.10;85.00;;;;;;4954565;28;20026;-74
2022/04/03 12:29:50;;;;;;;7.65;2.42;;;9.30;85.00;;;;;;4971748;28;20442;-74
2022/04/03 12:32:17;;;;;;;0.43;0.43;;;9.50;83.60;;;;;;4971604;28;20525;-74
2022/04/03 12:34:48;;;;;;;0.30;0.13;;;9.40;82.90;;;;;;4971378;28;20034;-74
2022/04/03 12:37:14;;;;;;;0.38;0.38;;;9.40;83.80;;;;;;4978337;28;20035;-74
2022/04/03 12:39:51;;;;;;;0.17;0.13;;;9.30;85.00;;;;;;4991073;28;20042;-73
2022/04/03 12:42:24;;;;;;;0.00;0.00;;;9.10;84.10;;;;;;4991092;28;20486;-73
2022/04/03 12:44:54;;;;;;;0.22;0.22;;;8.90;84.80;;;;;;4979146;28;20128;-73
2022/04/03 12:47:53;;;;;;;0.00;0.00;;;8.90;84.40;;;;;;4991211;28;20030;-74
2022/04/03 12:50:30;;;;;;;0.20;0.13;;;8.80;84.40;;;;;;4990805;28;20101;-74
2022/04/03 12:53:02;;;;;;;0.15;0.13;;;8.80;85.10;;;;;;4990309;28;20589;-74
2022/04/03 12:55:33;;;;;;;0.22;0.22;;;9.00;85.50;;;;;;4970328;28;20617;-74